Darstellungsparameter: Aktuell verwendete Einstellungen:
Skalierung der Graphiken ... ?
xyx+y,   Skalierungsfaktor:      Skalierung: Modus: x, Faktor: 1
Darstellungszeitraum ... ?
Vom - - bis: - -   Zeitraum: 15.08.2020 - 15.08.2020
Min/Max/Avg-Anzeige ... ?
Zeige MMA aktuell
Zeige MMA Monat
Zeige MMA alles
Zeige --A aktuell
Zeige --A Monat
Zeige --A alles
Keine MMA-Anzeige
MMA:
Average (ber die Originaldaten)
MMA-Basis: 15.08.2020 - 15.08.2020
Quicknavigation für Darstellung... ?
Tage:      1T, 2T, 3T, 5T -1T -2T -3T -5T +1T +2T +3T +5T
Wochen: 1W, 2W, 3W -1W -2W -3W +1W +2W +3W
Monate: 1M, 3M, 6M -1M -3M -6M +1M +3M +6M
Jahre:    1J, 3J, 5J, 10J -1J -3J -5J -10J +1J +3J +5J +10J
Nutze für die Darstellung ... ?
Originaldaten oder Mittelwerte auf ...
Stundenbasis Tagesbasis Wochenbasis
Monatsbasis Jahresbasis      Datenbasis: Original-Daten
Darstellen als:
Statistik (Auto) Statistik J:M      Darstellung:
Zur Graphik,    zurück zur Übersicht aller Sensoren.
 
Tabellarische Datenbersicht: ?
 
Sensor: Nr:Datum:Temp:Abs-Feuchte:Windchill:Wind:
Aussen-T/F 1 15-08-2020 00:00:00 21.6 C 15.93 g/m*3 21.6 C 1.6 km/h
2 15-08-2020 00:05:00 21.5 C 15.84 g/m*3 21.5 C 4.8 km/h
3 15-08-2020 00:10:00 21.4 C 15.75 g/m*3 21.4 C 4.8 km/h
4 15-08-2020 00:15:00 21.4 C 15.75 g/m*3 21.4 C 6.4 km/h
5 15-08-2020 00:20:00 21.3 C 15.66 g/m*3 21.3 C 0 km/h
6 15-08-2020 00:25:00 21.3 C 15.84 g/m*3 21.3 C 0 km/h
7 15-08-2020 00:30:00 21.3 C 15.84 g/m*3 21.3 C 0 km/h
8 15-08-2020 00:35:00 21.2 C 15.75 g/m*3 21.2 C 1.6 km/h
9 15-08-2020 00:40:00 21.2 C 15.75 g/m*3 21.2 C 1.6 km/h
10 15-08-2020 00:45:00 21.2 C 15.94 g/m*3 21.2 C 0 km/h
11 15-08-2020 00:50:00 21.2 C 15.94 g/m*3 21.2 C 0 km/h
12 15-08-2020 00:55:00 21.1 C 15.85 g/m*3 21.1 C 0 km/h
13 15-08-2020 01:00:00 21.1 C 15.85 g/m*3 21.1 C 0 km/h
14 15-08-2020 01:05:00 21.1 C 15.85 g/m*3 21.1 C 0 km/h
15 15-08-2020 01:10:00 21 C 15.75 g/m*3 21 C 3.2 km/h
16 15-08-2020 01:15:00 21 C 15.75 g/m*3 21 C 0 km/h
17 15-08-2020 01:20:00 21 C 15.94 g/m*3 21 C 0 km/h
18 15-08-2020 01:25:00 21 C 15.75 g/m*3 21 C 0 km/h
19 15-08-2020 01:30:00 20.9 C 15.84 g/m*3 20.9 C 0 km/h
20 15-08-2020 01:35:00 20.9 C 15.84 g/m*3 20.9 C 0 km/h
21 15-08-2020 01:40:00 20.8 C 15.75 g/m*3 20.8 C 0 km/h
22 15-08-2020 01:45:00 20.8 C 15.75 g/m*3 20.8 C 0 km/h
23 15-08-2020 01:50:00 20.7 C 15.66 g/m*3 20.7 C 0 km/h
24 15-08-2020 01:55:00 20.7 C 15.66 g/m*3 20.7 C 0 km/h
25 15-08-2020 02:00:00 20.6 C 15.57 g/m*3 20.6 C 1.6 km/h
Sensor: Nr:Datum:Temp:Abs-Feuchte:Windchill:Wind:
Aussen-T/F 26 15-08-2020 02:05:00 20.6 C 15.57 g/m*3 20.6 C 1.6 km/h
27 15-08-2020 02:10:00 20.4 C 15.39 g/m*3 20.4 C 1.6 km/h
28 15-08-2020 02:15:00 20.3 C 15.3 g/m*3 20.3 C 0 km/h
29 15-08-2020 02:20:00 20.3 C 15.3 g/m*3 20.3 C 1.6 km/h
30 15-08-2020 02:25:00 20.2 C 15.21 g/m*3 20.2 C 3.2 km/h
31 15-08-2020 02:30:00 20.1 C 15.3 g/m*3 20.1 C 1.6 km/h
32 15-08-2020 02:35:00 20 C 15.21 g/m*3 20 C 3.2 km/h
33 15-08-2020 02:40:00 19.9 C 15.12 g/m*3 19.9 C 1.6 km/h
34 15-08-2020 02:45:00 19.9 C 15.12 g/m*3 19.9 C 0 km/h
35 15-08-2020 02:50:00 19.8 C 15.2 g/m*3 19.8 C 0 km/h
36 15-08-2020 02:55:00 19.7 C 15.11 g/m*3 19.7 C 0 km/h
37 15-08-2020 03:00:00 19.7 C 15.11 g/m*3 19.7 C 0 km/h
38 15-08-2020 03:05:00 19.7 C 15.28 g/m*3 19.7 C 0 km/h
39 15-08-2020 03:10:00 19.6 C 15.19 g/m*3 19.6 C 0 km/h
40 15-08-2020 03:15:00 19.6 C 15.19 g/m*3 19.6 C 0 km/h
41 15-08-2020 03:20:00 19.4 C 15.02 g/m*3 19.4 C 0 km/h
42 15-08-2020 03:25:00 19.4 C 15.02 g/m*3 19.4 C 1.6 km/h
43 15-08-2020 03:30:00 19.3 C 14.93 g/m*3 19.3 C 0 km/h
44 15-08-2020 03:35:00 19.3 C 15.09 g/m*3 19.3 C 0 km/h
45 15-08-2020 03:40:00 19.3 C 15.09 g/m*3 19.3 C 0 km/h
46 15-08-2020 03:45:00 19.2 C 15.01 g/m*3 19.2 C 0 km/h
47 15-08-2020 03:50:00 19.2 C 15.01 g/m*3 19.2 C 0 km/h
48 15-08-2020 03:55:00 19.1 C 14.92 g/m*3 19.1 C 0 km/h
49 15-08-2020 04:00:00 19 C 14.83 g/m*3 19 C 0 km/h
50 15-08-2020 04:05:00 18.9 C 14.9 g/m*3 18.9 C 0 km/h
Sensor: Nr:Datum:Temp:Abs-Feuchte:Windchill:Wind:
Aussen-T/F 51 15-08-2020 04:10:00 18.9 C 14.9 g/m*3 18.9 C 0 km/h
52 15-08-2020 04:15:00 18.8 C 14.82 g/m*3 18.8 C 0 km/h
53 15-08-2020 04:20:00 18.8 C 14.82 g/m*3 18.8 C 0 km/h
54 15-08-2020 04:25:00 18.7 C 14.73 g/m*3 18.7 C 0 km/h
55 15-08-2020 04:30:00 18.7 C 14.73 g/m*3 18.7 C 0 km/h
56 15-08-2020 04:35:00 18.6 C 14.8 g/m*3 18.6 C 0 km/h
57 15-08-2020 04:40:00 18.6 C 14.8 g/m*3 18.6 C 0 km/h
58 15-08-2020 04:45:00 18.6 C 14.8 g/m*3 18.6 C 0 km/h
59 15-08-2020 04:50:00 18.5 C 14.71 g/m*3 18.5 C 0 km/h
60 15-08-2020 04:55:00 18.4 C 14.63 g/m*3 18.4 C 0 km/h
61 15-08-2020 05:00:00 18.3 C 14.54 g/m*3 18.3 C 0 km/h
62 15-08-2020 05:05:00 18.3 C 14.54 g/m*3 18.3 C 0 km/h
63 15-08-2020 05:10:00 18.3 C 14.54 g/m*3 18.3 C 0 km/h
64 15-08-2020 05:15:00 18.3 C 14.54 g/m*3 18.3 C 0 km/h
65 15-08-2020 05:20:00 18.3 C 14.7 g/m*3 18.3 C 0 km/h
66 15-08-2020 05:25:00 18.2 C 14.61 g/m*3 18.2 C 0 km/h
67 15-08-2020 05:30:00 18.3 C 14.7 g/m*3 18.3 C 0 km/h
68 15-08-2020 05:35:00 18.3 C 14.7 g/m*3 18.3 C 0 km/h
69 15-08-2020 05:40:00 18.3 C 14.7 g/m*3 18.3 C 0 km/h
70 15-08-2020 05:45:00 18.3 C 14.7 g/m*3 18.3 C 0 km/h
71 15-08-2020 05:50:00 18.4 C 14.78 g/m*3 18.4 C 0 km/h
72 15-08-2020 05:55:00 18.4 C 14.78 g/m*3 18.4 C 0 km/h
73 15-08-2020 06:00:00 18.4 C 14.78 g/m*3 18.4 C 0 km/h
74 15-08-2020 06:05:00 18.4 C 14.78 g/m*3 18.4 C 0 km/h
75 15-08-2020 06:10:00 18.4 C 14.78 g/m*3 18.4 C 0 km/h
Sensor: Nr:Datum:Temp:Abs-Feuchte:Windchill:Wind:
Aussen-T/F 76 15-08-2020 06:15:00 18.3 C 14.7 g/m*3 18.3 C 0 km/h
77 15-08-2020 06:20:00 18.3 C 14.7 g/m*3 18.3 C 0 km/h
78 15-08-2020 06:25:00 18.3 C 14.7 g/m*3 18.3 C 0 km/h
79 15-08-2020 06:30:00 18.3 C 14.7 g/m*3 18.3 C 0 km/h
80 15-08-2020 06:35:00 18.2 C 14.61 g/m*3 18.2 C 0 km/h
81 15-08-2020 06:40:00 18.2 C 14.61 g/m*3 18.2 C 0 km/h
82 15-08-2020 06:45:00 18.2 C 14.77 g/m*3 18.2 C 0 km/h
83 15-08-2020 06:50:00 18.2 C 14.77 g/m*3 18.2 C 0 km/h
84 15-08-2020 06:55:00 18.2 C 14.77 g/m*3 18.2 C 0 km/h
85 15-08-2020 07:00:00 18.2 C 14.61 g/m*3 18.2 C 0 km/h
86 15-08-2020 07:05:00 18.2 C 14.77 g/m*3 18.2 C 0 km/h
87 15-08-2020 07:10:00 18.3 C 14.85 g/m*3 18.3 C 0 km/h
88 15-08-2020 07:15:00 18.3 C 14.85 g/m*3 18.3 C 0 km/h
89 15-08-2020 07:20:00 18.4 C 14.94 g/m*3 18.4 C 0 km/h
90 15-08-2020 07:25:00 18.5 C 15.03 g/m*3 18.5 C 0 km/h
91 15-08-2020 07:30:00 18.6 C 15.12 g/m*3 18.6 C 0 km/h
92 15-08-2020 07:35:00 18.7 C 15.21 g/m*3 18.7 C 0 km/h
93 15-08-2020 07:40:00 18.8 C 15.3 g/m*3 18.8 C 0 km/h
94 15-08-2020 07:45:00 18.9 C 15.39 g/m*3 18.9 C 0 km/h
95 15-08-2020 07:50:00 18.9 C 15.39 g/m*3 18.9 C 0 km/h
96 15-08-2020 07:55:00 19 C 15.48 g/m*3 19 C 0 km/h
97 15-08-2020 08:00:00 19.1 C 15.57 g/m*3 19.1 C 0 km/h
98 15-08-2020 08:05:00 19.1 C 15.57 g/m*3 19.1 C 0 km/h
99 15-08-2020 08:10:00 19.2 C 15.66 g/m*3 19.2 C 0 km/h
100 15-08-2020 08:15:00 19.3 C 15.76 g/m*3 19.3 C 0 km/h
Sensor: Nr:Datum:Temp:Abs-Feuchte:Windchill:Wind:
Aussen-T/F 101 15-08-2020 08:20:00 19.3 C 15.59 g/m*3 19.3 C 0 km/h
102 15-08-2020 08:25:00 19.4 C 15.68 g/m*3 19.4 C 0 km/h
103 15-08-2020 08:30:00 19.5 C 15.78 g/m*3 19.5 C 0 km/h
104 15-08-2020 08:35:00 19.6 C 15.87 g/m*3 19.6 C 0 km/h
105 15-08-2020 08:40:00 19.7 C 15.96 g/m*3 19.7 C 0 km/h
106 15-08-2020 08:45:00 19.8 C 15.89 g/m*3 19.8 C 0 km/h
107 15-08-2020 08:50:00 19.9 C 15.98 g/m*3 19.9 C 0 km/h
108 15-08-2020 08:55:00 20.1 C 16.17 g/m*3 20.1 C 0 km/h
109 15-08-2020 09:00:00 20.1 C 16.17 g/m*3 20.1 C 0 km/h
110 15-08-2020 09:05:00 20.2 C 16.09 g/m*3 20.2 C 0 km/h
111 15-08-2020 09:10:00 20.2 C 15.91 g/m*3 20.2 C 0 km/h
112 15-08-2020 09:15:00 20.3 C 16 g/m*3 20.3 C 0 km/h
113 15-08-2020 09:20:00 20.4 C 16.1 g/m*3 20.4 C 0 km/h
114 15-08-2020 09:25:00 20.6 C 16.11 g/m*3 20.6 C 0 km/h
115 15-08-2020 09:30:00 20.7 C 16.2 g/m*3 20.7 C 0 km/h
116 15-08-2020 09:35:00 20.8 C 16.12 g/m*3 20.8 C 0 km/h
117 15-08-2020 09:40:00 20.9 C 16.39 g/m*3 20.9 C 1.6 km/h
118 15-08-2020 09:45:00 21.1 C 16.4 g/m*3 21.1 C 1.6 km/h
119 15-08-2020 09:50:00 21.2 C 16.49 g/m*3 21.2 C 1.6 km/h
120 15-08-2020 09:55:00 21.4 C 16.5 g/m*3 21.4 C 1.6 km/h
121 15-08-2020 10:00:00 21.5 C 16.59 g/m*3 21.5 C 3.2 km/h
122 15-08-2020 10:05:00 21.6 C 16.69 g/m*3 21.6 C 0 km/h
123 15-08-2020 10:10:00 21.7 C 16.6 g/m*3 21.7 C 3.2 km/h
124 15-08-2020 10:15:00 21.9 C 16.79 g/m*3 21.9 C 4.8 km/h
125 15-08-2020 10:20:00 22 C 16.69 g/m*3 22 C 6.4 km/h
Sensor: Nr:Datum:Temp:Abs-Feuchte:Windchill:Wind:
Aussen-T/F 126 15-08-2020 10:25:00 22.2 C 16.88 g/m*3 22.2 C 1.6 km/h
127 15-08-2020 10:30:00 22.3 C 16.78 g/m*3 22.3 C 6.4 km/h
128 15-08-2020 10:35:00 22.4 C 16.68 g/m*3 22.4 C 3.2 km/h
129 15-08-2020 10:40:00 22.6 C 16.67 g/m*3 22.6 C 6.4 km/h
130 15-08-2020 10:45:00 22.7 C 16.77 g/m*3 22.7 C 0 km/h
131 15-08-2020 10:50:00 22.9 C 16.96 g/m*3 22.9 C 4.8 km/h
132 15-08-2020 10:55:00 23.1 C 16.74 g/m*3 23.1 C 4.8 km/h
133 15-08-2020 11:00:00 23.2 C 17.05 g/m*3 23.2 C 3.2 km/h
134 15-08-2020 11:05:00 23.4 C 17.24 g/m*3 23.4 C 8.1 km/h
135 15-08-2020 11:10:00 23.5 C 16.92 g/m*3 23.5 C 8.1 km/h
136 15-08-2020 11:15:00 23.6 C 17.01 g/m*3 23.6 C 1.6 km/h
137 15-08-2020 11:20:00 23.7 C 17.11 g/m*3 23.7 C 0 km/h
138 15-08-2020 11:25:00 23.8 C 16.99 g/m*3 23.8 C 1.6 km/h
139 15-08-2020 11:30:00 23.9 C 16.87 g/m*3 23.9 C 3.2 km/h
140 15-08-2020 11:35:00 24.2 C 17.38 g/m*3 24.2 C 3.2 km/h
141 15-08-2020 11:40:00 24.3 C 17.26 g/m*3 24.3 C 4.8 km/h
142 15-08-2020 11:45:00 24.3 C 17.04 g/m*3 24.3 C 4.8 km/h
143 15-08-2020 11:50:00 24.6 C 17.33 g/m*3 24.6 C 4.8 km/h
144 15-08-2020 11:55:00 24.8 C 17.07 g/m*3 24.8 C 6.4 km/h
145 15-08-2020 12:00:00 24.9 C 17.4 g/m*3 24.9 C 6.4 km/h
146 15-08-2020 12:05:00 24.9 C 17.17 g/m*3 24.9 C 6.4 km/h
147 15-08-2020 12:10:00 24.9 C 17.17 g/m*3 24.9 C 4.8 km/h
148 15-08-2020 12:15:00 24.9 C 16.94 g/m*3 24.9 C 6.4 km/h
149 15-08-2020 12:20:00 24.9 C 16.94 g/m*3 24.9 C 8.1 km/h
150 15-08-2020 12:25:00 24.9 C 16.94 g/m*3 24.9 C 9.7 km/h
Sensor: Nr:Datum:Temp:Abs-Feuchte:Windchill:Wind:
Aussen-T/F 151 15-08-2020 12:30:00 24.9 C 16.94 g/m*3 24.9 C 9.7 km/h
152 15-08-2020 12:35:00 25.1 C 17.13 g/m*3 25.1 C 6.4 km/h
153 15-08-2020 12:40:00 25.2 C 16.99 g/m*3 25.2 C 8.1 km/h
154 15-08-2020 12:45:00 25.3 C 16.86 g/m*3 25.3 C 4.8 km/h
155 15-08-2020 12:50:00 25.3 C 16.62 g/m*3 25.3 C 6.4 km/h
156 15-08-2020 12:55:00 25.3 C 16.62 g/m*3 25.3 C 0 km/h
157 15-08-2020 13:00:00 25.4 C 16.95 g/m*3 25.4 C 6.4 km/h
158 15-08-2020 13:05:00 25.5 C 16.81 g/m*3 25.5 C 8.1 km/h
159 15-08-2020 13:10:00 25.7 C 16.76 g/m*3 25.7 C 0 km/h
160 15-08-2020 13:15:00 25.7 C 16.52 g/m*3 25.7 C 0 km/h
161 15-08-2020 13:20:00 25.8 C 16.61 g/m*3 25.8 C 6.4 km/h
162 15-08-2020 13:25:00 25.8 C 16.61 g/m*3 25.8 C 9.7 km/h
163 15-08-2020 13:30:00 25.8 C 16.61 g/m*3 25.8 C 8.1 km/h
164 15-08-2020 13:35:00 25.9 C 16.46 g/m*3 25.9 C 8.1 km/h
165 15-08-2020 13:40:00 26.1 C 16.65 g/m*3 26.1 C 8.1 km/h
166 15-08-2020 13:45:00 26 C 16.31 g/m*3 26 C 9.7 km/h
167 15-08-2020 13:50:00 26.1 C 16.89 g/m*3 26.1 C 3.2 km/h
168 15-08-2020 13:55:00 26.1 C 16.4 g/m*3 26.1 C 3.2 km/h
169 15-08-2020 14:00:00 26.2 C 16.25 g/m*3 26.2 C 3.2 km/h
170 15-08-2020 14:05:00 26.3 C 16.59 g/m*3 26.3 C 0 km/h
171 15-08-2020 14:10:00 26.4 C 16.43 g/m*3 26.4 C 0 km/h
172 15-08-2020 14:15:00 26.6 C 16.61 g/m*3 26.6 C 0 km/h
173 15-08-2020 14:20:00 26.7 C 16.71 g/m*3 26.7 C 0 km/h
174 15-08-2020 14:25:00 26.9 C 16.64 g/m*3 26.9 C 12.9 km/h
175 15-08-2020 14:30:00 26.8 C 16.54 g/m*3 26.8 C 12.9 km/h
Sensor: Nr:Datum:Temp:Abs-Feuchte:Windchill:Wind:
Aussen-T/F 176 15-08-2020 14:35:00 26.3 C 15.84 g/m*3 26.3 C 24.1 km/h
177 15-08-2020 14:40:00 25.5 C 15.63 g/m*3 25.5 C 14.5 km/h
178 15-08-2020 14:45:00 25.1 C 15.28 g/m*3 25.1 C 14.5 km/h
179 15-08-2020 14:50:00 24.8 C 15.02 g/m*3 24.8 C 11.3 km/h
180 15-08-2020 14:55:00 24.6 C 15.08 g/m*3 24.6 C 9.7 km/h
181 15-08-2020 15:00:00 24.6 C 15.3 g/m*3 24.6 C 6.4 km/h
182 15-08-2020 15:05:00 24.6 C 15.08 g/m*3 24.6 C 4.8 km/h
183 15-08-2020 15:10:00 24.6 C 15.08 g/m*3 24.6 C 8.1 km/h
184 15-08-2020 15:15:00 24.5 C 15.22 g/m*3 24.5 C 3.2 km/h
185 15-08-2020 15:20:00 24.5 C 14.99 g/m*3 24.5 C 1.6 km/h
186 15-08-2020 15:25:00 24.5 C 14.99 g/m*3 24.5 C 3.2 km/h
187 15-08-2020 15:30:00 24.5 C 15.22 g/m*3 24.5 C 4.8 km/h
188 15-08-2020 15:35:00 24.4 C 15.36 g/m*3 24.4 C 3.2 km/h
189 15-08-2020 15:40:00 24.4 C 15.8 g/m*3 24.4 C 0 km/h
190 15-08-2020 15:45:00 24.4 C 16.02 g/m*3 24.4 C 0 km/h
191 15-08-2020 15:50:00 24.2 C 16.06 g/m*3 24.2 C 0 km/h
192 15-08-2020 15:55:00 24.1 C 16.63 g/m*3 24.1 C 0 km/h
193 15-08-2020 16:00:00 23.8 C 16.78 g/m*3 23.8 C 4.8 km/h
194 15-08-2020 16:05:00 23.6 C 17.01 g/m*3 23.6 C 4.8 km/h
195 15-08-2020 16:10:00 23.4 C 16.82 g/m*3 23.4 C 1.6 km/h
196 15-08-2020 16:15:00 23.3 C 16.94 g/m*3 23.3 C 8.1 km/h
197 15-08-2020 16:20:00 23.1 C 16.95 g/m*3 23.1 C 4.8 km/h
198 15-08-2020 16:25:00 22.8 C 17.07 g/m*3 22.8 C 8.1 km/h
199 15-08-2020 16:30:00 22.7 C 16.97 g/m*3 22.7 C 4.8 km/h
200 15-08-2020 16:35:00 22.6 C 16.87 g/m*3 22.6 C 6.4 km/h
Sensor: Nr:Datum:Temp:Abs-Feuchte:Windchill:Wind:
Aussen-T/F 201 15-08-2020 16:40:00 22.6 C 17.08 g/m*3 22.6 C 3.2 km/h
202 15-08-2020 16:45:00 22.7 C 16.97 g/m*3 22.7 C 3.2 km/h
203 15-08-2020 16:50:00 22.8 C 17.07 g/m*3 22.8 C 3.2 km/h
204 15-08-2020 16:55:00 22.9 C 17.17 g/m*3 22.9 C 3.2 km/h
205 15-08-2020 17:00:00 23.1 C 17.36 g/m*3 23.1 C 4.8 km/h
206 15-08-2020 17:05:00 23.2 C 17.46 g/m*3 23.2 C 4.8 km/h
207 15-08-2020 17:10:00 23.2 C 17.67 g/m*3 23.2 C 11.3 km/h
208 15-08-2020 17:15:00 23.2 C 17.26 g/m*3 23.2 C 4.8 km/h
209 15-08-2020 17:20:00 23.2 C 17.46 g/m*3 23.2 C 4.8 km/h
210 15-08-2020 17:25:00 23.3 C 17.56 g/m*3 23.3 C 4.8 km/h
211 15-08-2020 17:30:00 23.4 C 17.45 g/m*3 23.4 C 0 km/h
212 15-08-2020 17:35:00 23.6 C 17.44 g/m*3 23.6 C 3.2 km/h
213 15-08-2020 17:40:00 23.9 C 17.31 g/m*3 23.9 C 4.8 km/h
214 15-08-2020 17:45:00 24.1 C 17.29 g/m*3 24.1 C 4.8 km/h
215 15-08-2020 17:50:00 24.2 C 17.38 g/m*3 24.2 C 0 km/h
216 15-08-2020 17:55:00 24.2 C 17.38 g/m*3 24.2 C 0 km/h
217 15-08-2020 18:00:00 24.2 C 17.38 g/m*3 24.2 C 0 km/h
218 15-08-2020 18:05:00 24.2 C 17.38 g/m*3 24.2 C 0 km/h
219 15-08-2020 18:10:00 24.1 C 17.29 g/m*3 24.1 C 0 km/h
220 15-08-2020 18:15:00 24.1 C 17.29 g/m*3 24.1 C 0 km/h
221 15-08-2020 18:20:00 24.1 C 17.5 g/m*3 24.1 C 0 km/h
222 15-08-2020 18:25:00 24.1 C 17.72 g/m*3 24.1 C 0 km/h
223 15-08-2020 18:30:00 24 C 17.41 g/m*3 24 C 0 km/h
224 15-08-2020 18:35:00 23.9 C 17.52 g/m*3 23.9 C 0 km/h
225 15-08-2020 18:40:00 23.8 C 17.42 g/m*3 23.8 C 0 km/h
Sensor: Nr:Datum:Temp:Abs-Feuchte:Windchill:Wind:
Aussen-T/F 226 15-08-2020 18:45:00 23.8 C 17.64 g/m*3 23.8 C 0 km/h
227 15-08-2020 18:50:00 23.8 C 17.64 g/m*3 23.8 C 0 km/h
228 15-08-2020 18:55:00 23.7 C 17.54 g/m*3 23.7 C 0 km/h
229 15-08-2020 19:00:00 23.7 C 17.54 g/m*3 23.7 C 0 km/h
230 15-08-2020 19:05:00 23.6 C 17.65 g/m*3 23.6 C 0 km/h
231 15-08-2020 19:10:00 23.5 C 17.55 g/m*3 23.5 C 0 km/h
232 15-08-2020 19:15:00 23.4 C 17.45 g/m*3 23.4 C 0 km/h
233 15-08-2020 19:20:00 23.4 C 17.66 g/m*3 23.4 C 0 km/h
234 15-08-2020 19:25:00 23.3 C 17.56 g/m*3 23.3 C 0 km/h
235 15-08-2020 19:30:00 23.3 C 17.77 g/m*3 23.3 C 0 km/h
236 15-08-2020 19:35:00 23.3 C 17.77 g/m*3 23.3 C 0 km/h
237 15-08-2020 19:40:00 23.3 C 17.77 g/m*3 23.3 C 0 km/h
238 15-08-2020 19:45:00 23.3 C 17.77 g/m*3 23.3 C 0 km/h
239 15-08-2020 19:50:00 23.3 C 17.77 g/m*3 23.3 C 0 km/h
240 15-08-2020 19:55:00 23.4 C 18.08 g/m*3 23.4 C 3.2 km/h
241 15-08-2020 20:00:00 23.4 C 18.08 g/m*3 23.4 C 1.6 km/h
242 15-08-2020 20:05:00 23.3 C 18.19 g/m*3 23.3 C 0 km/h
243 15-08-2020 20:10:00 23.4 C 18.08 g/m*3 23.4 C 0 km/h
244 15-08-2020 20:15:00 23.4 C 18.08 g/m*3 23.4 C 0 km/h
245 15-08-2020 20:20:00 23.3 C 17.98 g/m*3 23.3 C 0 km/h
246 15-08-2020 20:25:00 23.3 C 17.77 g/m*3 23.3 C 0 km/h
247 15-08-2020 20:30:00 23.3 C 17.56 g/m*3 23.3 C 0 km/h
248 15-08-2020 20:35:00 23.2 C 17.46 g/m*3 23.2 C 0 km/h
249 15-08-2020 20:40:00 23.1 C 17.16 g/m*3 23.1 C 0 km/h
250 15-08-2020 20:45:00 22.9 C 17.17 g/m*3 22.9 C 0 km/h
Sensor: Nr:Datum:Temp:Abs-Feuchte:Windchill:Wind:
Aussen-T/F 251 15-08-2020 20:50:00 22.8 C 17.07 g/m*3 22.8 C 1.6 km/h
252 15-08-2020 20:55:00 22.7 C 16.77 g/m*3 22.7 C 0 km/h
253 15-08-2020 21:00:00 22.6 C 16.87 g/m*3 22.6 C 0 km/h
254 15-08-2020 21:05:00 22.4 C 16.68 g/m*3 22.4 C 0 km/h
255 15-08-2020 21:10:00 22.3 C 16.59 g/m*3 22.3 C 0 km/h
256 15-08-2020 21:15:00 22.2 C 16.69 g/m*3 22.2 C 0 km/h
257 15-08-2020 21:20:00 22.1 C 16.59 g/m*3 22.1 C 0 km/h
258 15-08-2020 21:25:00 22 C 16.69 g/m*3 22 C 0 km/h
259 15-08-2020 21:30:00 21.9 C 16.6 g/m*3 21.9 C 0 km/h
260 15-08-2020 21:35:00 21.8 C 16.5 g/m*3 21.8 C 0 km/h
261 15-08-2020 21:40:00 21.7 C 16.6 g/m*3 21.7 C 0 km/h
262 15-08-2020 21:45:00 21.7 C 16.6 g/m*3 21.7 C 0 km/h
263 15-08-2020 21:50:00 21.6 C 16.5 g/m*3 21.6 C 0 km/h
264 15-08-2020 21:55:00 21.6 C 16.69 g/m*3 21.6 C 0 km/h
265 15-08-2020 22:00:00 21.4 C 16.5 g/m*3 21.4 C 0 km/h
266 15-08-2020 22:05:00 21.4 C 16.5 g/m*3 21.4 C 0 km/h
267 15-08-2020 22:10:00 21.3 C 16.59 g/m*3 21.3 C 0 km/h
268 15-08-2020 22:15:00 21.3 C 16.59 g/m*3 21.3 C 0 km/h
269 15-08-2020 22:20:00 21.2 C 16.49 g/m*3 21.2 C 0 km/h
270 15-08-2020 22:25:00 21.2 C 16.49 g/m*3 21.2 C 0 km/h
271 15-08-2020 22:30:00 21.1 C 16.4 g/m*3 21.1 C 0 km/h
272 15-08-2020 22:35:00 21.1 C 16.58 g/m*3 21.1 C 0 km/h
273 15-08-2020 22:40:00 21 C 16.49 g/m*3 21 C 0 km/h
274 15-08-2020 22:45:00 20.9 C 16.39 g/m*3 20.9 C 0 km/h
275 15-08-2020 22:50:00 20.9 C 16.39 g/m*3 20.9 C 0 km/h
Sensor: Nr:Datum:Temp:Abs-Feuchte:Windchill:Wind:
Aussen-T/F 276 15-08-2020 22:55:00 20.8 C 16.3 g/m*3 20.8 C 0 km/h
277 15-08-2020 23:00:00 20.8 C 16.3 g/m*3 20.8 C 0 km/h
278 15-08-2020 23:05:00 20.8 C 16.3 g/m*3 20.8 C 0 km/h
279 15-08-2020 23:10:00 20.7 C 16.38 g/m*3 20.7 C 0 km/h
280 15-08-2020 23:15:00 20.6 C 16.29 g/m*3 20.6 C 0 km/h
281 15-08-2020 23:20:00 20.6 C 16.29 g/m*3 20.6 C 0 km/h
282 15-08-2020 23:25:00 20.5 C 16.19 g/m*3 20.5 C 0 km/h
283 15-08-2020 23:30:00 20.4 C 16.1 g/m*3 20.4 C 0 km/h
284 15-08-2020 23:35:00 20.3 C 16 g/m*3 20.3 C 0 km/h
285 15-08-2020 23:40:00 20.2 C 15.91 g/m*3 20.2 C 0 km/h
286 15-08-2020 23:45:00 20.2 C 15.91 g/m*3 20.2 C 0 km/h
287 15-08-2020 23:50:00 20.1 C 15.82 g/m*3 20.1 C 0 km/h
288 15-08-2020 23:55:00 20.1 C 15.82 g/m*3 20.1 C 0 km/h

Legende:
   Min
   Max


Maximal/Minimal-Werte vom 15.08.2020 - 15.08.2020

Sensor Min Max Avg
Temp
(Aussen-T/F)
18.2 °C
15-08-2020  05:25:00
26.9 °C
15-08-2020  14:25:00
21.83 °C
Abs-Feuchte
(Aussen-T/F)
14.54 g/m*3
15-08-2020  05:00:00
18.19 g/m*3
15-08-2020  20:05:00
16.13 g/m*3
Windchill
(Aussen-T/F)
18.2 C
15-08-2020  05:25:00
26.9 C
15-08-2020  14:25:00
21.76 C

Die Daten stammen von einer Davis Vantage Pro 2 Wetter-Station und werden unter Linux mit der Software wview2wettercgi und aufbereitet. Alle Angaben erfolgen ohne Gewähr für ihre Vollständigkeit oder Richtigkeit.
Kontakt: Rainer Krienke krienke@uni-koblenz.de . Meine Webseiten an der Uni Koblenz oder privat.
Version: $Revision: 0.78 $